Station info - map view · info · telemetry · weather · raw · status · beacons · messages · bulletins · browse · moving · my account
Callsign, ship name or locator: Clear       
It is possible to search using wildcards (*?) after a prefix. Example: OH*
APRS station KD6GNB-1 - show graphs
Map loading...
Comment: FIRESTORM 2007
Mic-E message: Special
Last status: TinyTrak3 v1.1
Location: 37°40.03' N 122°25.45' W - locator CM87SQ90CC - show map - static map
2.1 miles East bearing 109° from Colma, San Mateo County, California, United States [?]
5.0 miles Northeast bearing 43° from Pacifica, San Mateo County, California, United States
7.4 miles South bearing 182° from San Francisco, San Francisco County, California, United States
36.8 miles Northwest bearing 308° from San Jose, Santa Clara County, California, United States
Last position: 2017-11-01 20:38:05 EDT (17d 15h35m ago)
2017-11-01 17:38:05 PDT local time at Colma, United States [?]
Altitude: 374 ft
Course: 136°
Last path: KD6GNB-1>3W4PPS via WIDE2-2,qAR,KC6SSM-5 (good)
Positions stored: 27914
Other SSIDs: KD6GNB-11 KD6GNB-9
Stations near current position of KD6GNB-1 - show more
callsign distance last heard - EST      callsign distance last heard - EST
FW1136166.1 yards 169°2017-11-19 11:00:16 MARCISSUZ2.3 miles 264°2017-11-15 19:22:36
KI6OID-112.5 miles 233°2017-11-19 11:09:52 CW65042.8 miles 251°2017-11-19 11:12:32
N6KAR3.8 miles 255°2017-10-31 23:28:34 N6KAR-53.8 miles 255°2017-10-22 06:28:26
KH2SK-53.9 miles 157°2017-11-14 14:53:26 ZL2UP-84.2 miles 154°2017-10-30 22:04:18
AE6DC-94.5 miles 237°2017-11-16 20:13:33 AE6DC-104.5 miles 237°2017-11-06 23:04:01
AE6DC-74.5 miles 237°2017-11-13 21:31:41 AE6DC-14.5 miles 237°2017-11-19 11:12:26
KSFO4.7 miles 138°2017-11-19 11:00:23 KI6NKO5.2 miles 357°2017-11-18 19:04:52
EW04265.2 miles 354°2017-11-19 11:11:33 KK6EBI-95.3 miles 157°2017-11-17 19:44:58
W6DMB5.6 miles 1°2017-11-17 22:14:07 EW60675.6 miles 333°2017-11-19 04:59:37
NEW KEEPER5.8 miles 53°2017-11-16 13:35:20 N6WKZ-25.9 miles 344°2017-11-17 11:17:02
Stations which heard KD6GNB-1 directly on radio –
callsign pkts first heard - EST last heard longest (tx => rx) longest at - EST
K6TUO-3 1 2017-11-01 18:32:31 2017-11-01 18:32:31 CM97MB > CM98TA 75.5 miles 26° 2017-11-01 18:32:31
W6BXN-3 21 2017-11-01 17:38:58 2017-11-01 18:46:24 CM96UI > CM97XM 83.9 miles 9° 2017-11-01 17:38:58
WR6ABD 12 2017-11-01 19:08:19 2017-11-01 19:35:13 CM97FA > CM97BC 19.3 miles 293° 2017-11-01 19:08:19
K6IXA-3 68 2017-11-01 15:51:28 2017-11-01 18:46:25 CM97JB > DM06NR 132.0 miles 99° 2017-11-01 18:46:25
WA6YLB-7 2 2017-11-01 17:15:04 2017-11-01 17:48:56 CM96SL > DM06JM 68.5 miles 88° 2017-11-01 17:48:56
KF6RAL-15 7 2017-11-01 14:58:11 2017-11-01 15:31:03 DM04SH > DM04PR 32.8 miles 336° 2017-11-01 14:58:11
WB6WLV-11 2 2017-11-01 12:50:41 2017-11-01 12:52:41 DM12JU > DM12TV 43.9 miles 87° 2017-11-01 12:52:41
W6SCE-10 18 2017-11-01 13:53:26 2017-11-01 15:20:06 DM13DP > DM04QH 68.9 miles 314° 2017-11-01 13:53:26
N6EX-1 2 2017-11-01 14:19:20 2017-11-01 14:34:17 DM03WW > DM04XE 17.3 miles 12° 2017-11-01 14:19:20
N6EX-4 9 2017-11-01 13:52:26 2017-11-01 14:32:16 DM04WA > DM13CO 34.8 miles 144° 2017-11-01 14:32:16
W6HRO 56 2017-11-01 12:30:28 2017-11-01 16:59:52 EM29MA > DM13AU 1319.4 miles 261° 2017-11-01 12:31:45
WA6YLB-5 60 2017-11-01 15:41:30 2017-11-01 17:37:59 CM96UH > DM05RU 101.6 miles 108° 2017-11-01 17:37:59
WA6LDQ-3 1 2017-11-01 15:35:02 2017-11-01 15:35:02 DM04NT > DM05RD 28.6 miles 35° 2017-11-01 15:35:02
W6YX-5 6 2017-11-01 19:50:09 2017-11-01 20:05:06 CM87UK > CM87WJ 5.7 miles 119° 2017-11-01 20:05:06
K6MAR-10 5 2017-11-01 15:48:28 2017-11-01 15:52:27 DM04MW > DM05NJ 34.0 miles 3° 2017-11-01 15:48:28
NI6M-2 3 2017-11-01 17:24:02 2017-11-01 18:05:54 CM96WC > DM07HB 77.0 miles 31° 2017-11-01 17:24:02
WB6TMS-3 1 2017-11-01 20:27:01 2017-11-01 20:27:01 CM87SP > CM87LX 40.7 miles 308° 2017-11-01 20:27:01
N6ZX-3 27 2017-11-01 19:44:11 2017-11-01 20:35:00 CM87XH > CM87UK 16.6 miles 297° 2017-11-01 19:44:11
KA6PTJ-3 1 2017-11-01 15:34:03 2017-11-01 15:34:03 DM04NT > DM05SB 28.8 miles 56° 2017-11-01 15:34:03
KELLER 2 2017-11-01 14:17:20 2017-11-01 14:19:23 DM03XW > DM14LE 62.0 miles 72° 2017-11-01 14:19:23
KC6SSM-5 2 2017-11-01 20:15:05 2017-11-01 20:38:05 CM87TN > CM87UV 25.2 miles 11° 2017-11-01 20:15:05
N5CAT-12 2 2017-11-01 14:53:11 2017-11-01 14:54:11 DM04SF > DM04RG 7.5 miles 291° 2017-11-01 14:53:11
WA5ZNU-10 1 2017-11-01 20:04:06 2017-11-01 20:04:06 CM87VK > CM87WK 7.3 miles 95° 2017-11-01 20:04:06
KJ6LEO 5 2017-11-01 19:49:09 2017-11-01 20:18:03 CM87TO > CM97BK 31.5 miles 109° 2017-11-01 20:18:03
N5CAT-15 4 2017-11-01 13:43:27 2017-11-01 13:48:26 DM13EL > DM13DN 7.0 miles 324° 2017-11-01 13:43:27
KA6DAC-1 23 2017-11-01 12:27:21 2017-11-01 13:02:37 EM29MA > DM12MT 1294.9 miles 258° 2017-11-01 12:29:21
KJ6DXJ 3 2017-11-01 13:46:26 2017-11-01 13:50:25 DM13DO > DM13DM 4.7 miles 180° 2017-11-01 13:50:25
KW0RCA-2 2 2017-11-01 19:48:10 2017-11-01 20:16:03 CM87TN > CM87XO 20.8 miles 83° 2017-11-01 20:16:03
WB9COY-1 3 2017-11-01 13:04:36 2017-11-01 13:12:34 DM13IB > DM12IW 7.7 miles 167° 2017-11-01 13:12:34
XE2GF-10 3 2017-11-01 12:42:41 2017-11-01 12:50:39 DM12KU > DM12LM 24.1 miles 164° 2017-11-01 12:50:39
K6RPT 2 2017-11-01 19:34:13 2017-11-01 19:35:15 CM97BG > CM97BG 1.2 miles 77° 2017-11-01 19:35:15
N6EAJ 2 2017-11-01 12:55:38 2017-11-01 13:09:35 DM12JU > DM13KE 23.6 miles 13° 2017-11-01 12:55:38
K6MRC-1 2 2017-11-01 12:29:20 2017-11-01 12:46:40 EM29MA > DM12KQ 1309.3 miles 257° 2017-11-01 12:29:20
AF6UA-10 1 2017-11-01 13:14:34 2017-11-01 13:14:34 DM13IC > DM13LC 13.9 miles 84° 2017-11-01 13:14:34
KF6SJ-10 1 2017-11-01 13:02:37 2017-11-01 13:02:37 DM12JV > DM13LA 13.4 miles 48° 2017-11-01 13:02:37
N6VUD-15 3 2017-11-01 20:20:02 2017-11-01 20:26:01 CM87SO > CM87VV 21.7 miles 31° 2017-11-01 20:20:02
N6SUN-10 2 2017-11-01 12:58:38 2017-11-01 13:01:37 DM12JU > DM13KB 15.2 miles 23° 2017-11-01 12:58:38
WA6JFK-1 2 2017-11-01 14:41:15 2017-11-01 14:43:14 DM04UD > DM04VC 2.8 miles 107° 2017-11-01 14:43:14
BKELEY 2 2017-11-01 20:20:03 2017-11-01 20:25:02 CM87SO > CM87VU 20.8 miles 33° 2017-11-01 20:20:03
W6IA 1 2017-11-01 19:40:11 2017-11-01 19:40:11 CM87XG > CM97BG 5.4 miles 93° 2017-11-01 19:40:11
AG6GH-10 3 2017-11-01 20:02:07 2017-11-01 20:10:05 CM87UL > CM87VL 7.0 miles 98° 2017-11-01 20:10:05
KH6L-3 4 2017-11-01 19:23:15 2017-11-01 19:44:10 CM87XH > CM97BE 14.9 miles 127° 2017-11-01 19:44:10
KF6NMZ-4 2 2017-11-01 14:56:10 2017-11-01 14:59:10 DM04RH > DM04SG 5.7 miles 151° 2017-11-01 14:59:10
W6SRR-3 5 2017-11-01 19:32:13 2017-11-01 19:46:10 CM97BG > CM97AO 25.5 miles 358° 2017-11-01 19:35:12
KK6DA-1 4 2017-11-01 14:41:18 2017-11-01 14:49:15 DM04TE > DM04UC 8.0 miles 151° 2017-11-01 14:49:15

Only position packets which were originated by the station are shown here. The range statistics show some extra long hops, because some digipeaters do not correctly add themselves to the digipeater path. Please check the raw packets.
About this site
This page shows real-time information collected from the Automatic Position Reporting System Internet network (APRS-IS). APRS is used by amateur (ham) radio operators to transmit real-time position information, weather data, telemetry and messages over the radio. A vehicle equipped with a GPS receiver, a VHF transmitter or HF transceiver and a small computer device called a tracker transmits it's location, speed and course in a small data packet, which is then received by a nearby iGate receiving site which forwards the packet on the Internet. Systems connected to the Internet can send information on the APRS-IS without a radio transmitter, or collect and display information transmitted anywhere in the world.
FAQ · Blog · Discussion group · Linking to aprs.fi · AIS sites · Service status · Database statistics · Advertising on aprs.fi · Technical details · API · Change log · Planned changes · Credits and thanks · Terms Of Service · iPhone/iPad APRS